Time;durP1;ratioP1;P1;durP2;ratioP2;P2;SDS_P1;SDS_P2;PMS_P1;PMS_P2;Temp;Humidity;BMP_temperature;BMP_pressure;BME280_temperature;BME280_humidity;BME280_pressure;Samples;Min_cycle;Max_cycle;Signal;HPM_P1;HPM_P2
2021/03/10 00:02:06;;;;;;;64.40;35.45;;;;;;;;;;5013319;28;20049;-60
2021/03/10 00:04:32;;;;;;;65.22;37.25;;;;;;;;;;5014023;28;20394;-59
2021/03/10 00:06:58;;;;;;;56.17;34.45;;;;;;;;;;5013880;28;20101;-57
2021/03/10 00:09:24;;;;;;;62.38;36.10;;;;;;;;;;4995605;28;20160;-56
2021/03/10 00:11:50;;;;;;;55.97;34.22;;;;;;;;;;5015611;28;20090;-61
2021/03/10 00:14:16;;;;;;;62.90;36.53;;;;;;;;;;5015591;28;20041;-58
2021/03/10 00:16:42;;;;;;;59.60;35.38;;;;;;;;;;5025500;28;20038;-63
2021/03/10 00:19:08;;;;;;;58.83;35.30;;;;;;;;;;5033095;28;20026;-61
2021/03/10 00:21:34;;;;;;;61.95;34.95;;;;;;;;;;5032832;28;20013;-60
2021/03/10 00:24:01;;;;;;;59.58;34.90;;;;;;;;;;5016241;28;20085;-57
2021/03/10 00:26:27;;;;;;;56.83;33.33;;;;;;;;;;4995878;28;20382;-61
2021/03/10 00:28:53;;;;;;;63.13;37.28;;;;;;;;;;5009590;28;20022;-60
2021/03/10 00:31:19;;;;;;;60.90;34.88;;;;;;;;;;4975790;28;20041;-58
2021/03/10 00:33:46;;;;;;;60.67;35.40;;;;;;;;;;5012679;28;20532;-57
2021/03/10 00:36:12;;;;;;;60.78;35.25;;;;;;;;;;5011357;28;20052;-62
2021/03/10 00:38:38;;;;;;;58.10;34.40;;;;;;;;;;5012376;28;20049;-60
2021/03/10 00:41:04;;;;;;;56.85;33.67;;;;;;;;;;4993619;28;20460;-61
2021/03/10 00:43:30;;;;;;;57.97;34.15;;;;;;;;;;5012611;28;20038;-60
2021/03/10 00:45:57;;;;;;;53.22;32.78;;;;;;;;;;5013139;28;20032;-59
2021/03/10 00:48:23;;;;;;;54.95;34.05;;;;;;;;;;5012302;28;20018;-60
2021/03/10 00:50:49;;;;;;;58.38;35.28;;;;;;;;;;4994992;28;20473;-56
2021/03/10 00:53:15;;;;;;;60.65;34.75;;;;;;;;;;4995334;28;20090;-61
2021/03/10 00:55:41;;;;;;;61.35;33.38;;;;;;;;;;5012509;28;20054;-57
2021/03/10 00:58:07;;;;;;;60.70;33.80;;;;;;;;;;4693641;22;10000252;-62
2021/03/10 01:00:33;;;;;;;61.55;33.97;;;;;;;;;;5037823;28;20033;-61
2021/03/10 01:02:59;;;;;;;71.50;37.88;;;;;;;;;;5027259;28;20472;-63
2021/03/10 01:05:25;;;;;;;64.32;34.60;;;;;;;;;;5052792;28;20480;-61
2021/03/10 01:07:51;;;;;;;59.47;32.92;;;;;;;;;;5020065;28;20493;-60
2021/03/10 01:10:18;;;;;;;67.22;35.42;;;;;;;;;;5045619;28;20060;-60
2021/03/10 01:12:44;;;;;;;67.50;38.03;;;;;;;;;;5038411;28;20022;-61
2021/03/10 01:15:11;;;;;;;61.83;34.05;;;;;;;;;;5041105;28;20029;-60
2021/03/10 01:17:38;;;;;;;69.43;35.30;;;;;;;;;;5034343;28;20055;-63
2021/03/10 01:20:08;;;;;;;71.65;37.03;;;;;;;;;;5017510;28;20033;-58
2021/03/10 01:22:34;;;;;;;69.18;38.92;;;;;;;;;;5036119;28;20028;-62
2021/03/10 01:25:01;;;;;;;77.25;37.58;;;;;;;;;;5034923;28;20025;-62
2021/03/10 01:27:27;;;;;;;78.35;40.03;;;;;;;;;;5034459;28;20028;-62
2021/03/10 01:29:53;;;;;;;74.50;40.88;;;;;;;;;;5051950;28;20023;-62
2021/03/10 01:32:19;;;;;;;72.22;39.35;;;;;;;;;;5018540;28;20140;-61
2021/03/10 01:34:45;;;;;;;79.63;40.28;;;;;;;;;;5040330;28;20029;-61
2021/03/10 01:37:12;;;;;;;75.45;39.85;;;;;;;;;;5052526;28;20047;-61
2021/03/10 01:39:38;;;;;;;68.50;37.88;;;;;;;;;;5051701;28;20532;-62
2021/03/10 01:42:04;;;;;;;67.07;39.78;;;;;;;;;;5038590;28;20082;-63
2021/03/10 01:44:31;;;;;;;75.50;39.95;;;;;;;;;;5050852;28;20101;-63
2021/03/10 01:46:57;;;;;;;70.63;38.85;;;;;;;;;;5046906;28;20104;-61
2021/03/10 01:49:23;;;;;;;74.55;38.63;;;;;;;;;;5046859;28;20084;-61
2021/03/10 01:51:49;;;;;;;64.22;36.78;;;;;;;;;;5033904;28;20029;-64
2021/03/10 01:54:15;;;;;;;69.63;34.15;;;;;;;;;;5052502;28;20029;-62
2021/03/10 01:56:42;;;;;;;59.63;34.88;;;;;;;;;;5034444;28;20079;-60
2021/03/10 01:59:08;;;;;;;55.10;33.92;;;;;;;;;;5051594;28;20040;-60
2021/03/10 02:01:34;;;;;;;62.28;35.03;;;;;;;;;;5048361;28;20038;-59
2021/03/10 02:04:07;;;;;;;63.38;33.95;;;;;;;;;;5019752;28;20043;-62
2021/03/10 02:06:36;;;;;;;65.70;36.55;;;;;;;;;;5051105;28;20021;-59
2021/03/10 02:09:05;;;;;;;74.40;38.38;;;;;;;;;;5051306;28;20025;-62
2021/03/10 02:11:33;;;;;;;74.68;40.05;;;;;;;;;;5051683;28;20048;-61
2021/03/10 02:13:59;;;;;;;129.93;76.07;;;;;;;;;;5050981;28;20060;-63
2021/03/10 02:16:40;;;;;;;75.13;38.67;;;;;;;;;;5018869;28;20396;-61
2021/03/10 02:19:21;;;;;;;88.72;48.63;;;;;;;;;;5028173;28;20554;-60
2021/03/10 02:21:47;;;;;;;109.22;55.88;;;;;;;;;;5039519;28;20080;-63
2021/03/10 02:24:29;;;;;;;75.43;40.20;;;;;;;;;;5014223;28;20022;-59
2021/03/10 02:27:05;;;;;;;83.25;41.95;;;;;;;;;;5014078;28;20028;-61
2021/03/10 02:29:31;;;;;;;72.15;39.72;;;;;;;;;;5031026;28;20021;-61
2021/03/10 02:31:58;;;;;;;72.40;39.17;;;;;;;;;;5041846;28;20037;-63
2021/03/10 02:34:25;;;;;;;71.85;38.70;;;;;;;;;;5033935;28;20029;-66
2021/03/10 02:36:53;;;;;;;70.75;40.13;;;;;;;;;;5038922;28;20143;-60
2021/03/10 02:39:19;;;;;;;64.28;38.15;;;;;;;;;;5037998;28;20392;-63
2021/03/10 02:41:46;;;;;;;74.50;40.75;;;;;;;;;;5035821;28;20079;-60
2021/03/10 02:44:12;;;;;;;62.83;38.20;;;;;;;;;;5035639;28;20048;-62
2021/03/10 02:46:39;;;;;;;61.80;37.58;;;;;;;;;;5017912;28;20017;-63
2021/03/10 02:49:06;;;;;;;59.70;36.35;;;;;;;;;;5034675;28;20017;-63
2021/03/10 02:51:32;;;;;;;60.00;34.78;;;;;;;;;;5017833;28;20444;-64
2021/03/10 02:53:58;;;;;;;73.15;38.80;;;;;;;;;;5017518;28;20034;-61
2021/03/10 02:56:25;;;;;;;72.32;39.05;;;;;;;;;;5035552;28;20032;-60
2021/03/10 02:58:51;;;;;;;64.13;35.00;;;;;;;;;;5017205;28;20517;-64
2021/03/10 03:01:20;;;;;;;70.47;38.33;;;;;;;;;;5036638;28;20340;-62
2021/03/10 03:04:03;;;;;;;63.67;35.92;;;;;;;;;;5040239;28;20033;-63
2021/03/10 03:06:29;;;;;;;69.03;36.40;;;;;;;;;;5039813;28;20024;-62
2021/03/10 03:08:56;;;;;;;62.85;34.33;;;;;;;;;;5054435;28;20020;-61
2021/03/10 03:11:22;;;;;;;63.05;35.60;;;;;;;;;;5037235;28;20032;-62
2021/03/10 03:13:48;;;;;;;57.95;35.67;;;;;;;;;;5036826;28;20032;-62
2021/03/10 03:16:14;;;;;;;64.30;34.55;;;;;;;;;;5037009;28;20068;-59
2021/03/10 03:18:41;;;;;;;58.85;31.92;;;;;;;;;;5036357;28;20472;-61
2021/03/10 03:21:07;;;;;;;61.60;34.05;;;;;;;;;;5055233;28;20104;-61
2021/03/10 03:23:33;;;;;;;66.50;36.28;;;;;;;;;;5036811;28;20108;-59
2021/03/10 03:25:59;;;;;;;62.33;35.38;;;;;;;;;;5035685;28;20142;-62
2021/03/10 03:28:28;;;;;;;60.60;34.97;;;;;;;;;;5054083;28;20535;-61
2021/03/10 03:30:55;;;;;;;60.17;34.10;;;;;;;;;;5048279;28;20381;-62
2021/03/10 03:33:23;;;;;;;58.75;33.78;;;;;;;;;;5032292;28;20021;-61
2021/03/10 03:35:59;;;;;;;62.58;33.85;;;;;;;;;;5049990;28;20086;-60
2021/03/10 03:38:26;;;;;;;56.83;34.63;;;;;;;;;;5043557;28;20032;-62
2021/03/10 03:40:55;;;;;;;62.85;33.88;;;;;;;;;;5036901;28;20036;-62
2021/03/10 03:43:24;;;;;;;62.42;35.08;;;;;;;;;;5046081;28;20040;-61
2021/03/10 03:45:50;;;;;;;57.65;33.40;;;;;;;;;;5045962;28;20044;-63
2021/03/10 03:48:18;;;;;;;68.50;34.55;;;;;;;;;;5045802;28;20028;-62
2021/03/10 03:50:44;;;;;;;60.43;34.50;;;;;;;;;;5016221;28;20140;-61
2021/03/10 03:53:11;;;;;;;57.92;31.65;;;;;;;;;;5043889;28;20024;-60
2021/03/10 03:55:38;;;;;;;58.35;34.65;;;;;;;;;;5036568;28;20399;-61
2021/03/10 03:58:04;;;;;;;61.65;34.70;;;;;;;;;;5053806;28;20033;-60
2021/03/10 04:00:32;;;;;;;59.78;33.97;;;;;;;;;;5036155;28;20067;-63
2021/03/10 04:02:58;;;;;;;62.42;34.00;;;;;;;;;;5036464;28;20075;-62
2021/03/10 04:05:24;;;;;;;61.97;33.63;;;;;;;;;;5031524;28;20033;-61
2021/03/10 04:07:55;;;;;;;64.22;36.90;;;;;;;;;;5043328;28;20044;-60
2021/03/10 04:10:26;;;;;;;60.72;34.85;;;;;;;;;;5053330;28;20026;-62
2021/03/10 04:12:52;;;;;;;62.67;35.03;;;;;;;;;;5053891;28;20036;-60
2021/03/10 04:15:18;;;;;;;67.72;35.65;;;;;;;;;;5035779;28;20032;-62
2021/03/10 04:17:44;;;;;;;62.35;34.35;;;;;;;;;;5053498;28;20028;-62
2021/03/10 04:20:14;;;;;;;63.88;35.33;;;;;;;;;;5052930;28;20039;-62
2021/03/10 04:22:40;;;;;;;60.95;34.22;;;;;;;;;;5018954;28;20139;-61
2021/03/10 04:25:07;;;;;;;67.82;34.50;;;;;;;;;;5053358;28;20509;-61
2021/03/10 04:27:33;;;;;;;66.53;36.35;;;;;;;;;;5052109;28;20025;-62
2021/03/10 04:30:00;;;;;;;61.38;32.95;;;;;;;;;;5035137;28;20443;-61
2021/03/10 04:32:26;;;;;;;65.38;35.33;;;;;;;;;;5035683;28;20064;-59
2021/03/10 04:34:52;;;;;;;58.78;35.67;;;;;;;;;;5028975;28;20057;-61
2021/03/10 04:37:18;;;;;;;64.70;34.70;;;;;;;;;;5051152;28;20036;-62
2021/03/10 04:39:44;;;;;;;62.65;36.05;;;;;;;;;;5032596;28;20081;-62
2021/03/10 04:42:10;;;;;;;59.20;34.08;;;;;;;;;;5034282;28;20063;-61
2021/03/10 04:44:36;;;;;;;61.72;35.53;;;;;;;;;;5030910;28;20021;-60
2021/03/10 04:47:03;;;;;;;66.63;38.50;;;;;;;;;;5049838;28;20108;-60
2021/03/10 04:49:29;;;;;;;60.45;33.47;;;;;;;;;;5040342;28;20026;-60
2021/03/10 04:51:55;;;;;;;59.42;32.53;;;;;;;;;;5024667;28;20029;-61
2021/03/10 04:54:21;;;;;;;61.83;34.88;;;;;;;;;;5015209;28;20022;-61
2021/03/10 04:56:48;;;;;;;66.10;36.42;;;;;;;;;;5033524;28;20033;-60
2021/03/10 04:59:14;;;;;;;67.55;35.47;;;;;;;;;;5030063;28;20068;-62
2021/03/10 05:01:40;;;;;;;71.00;36.50;;;;;;;;;;5034569;28;20098;-60
2021/03/10 05:04:06;;;;;;;69.85;36.75;;;;;;;;;;5035203;28;20166;-62
2021/03/10 05:06:32;;;;;;;68.25;35.33;;;;;;;;;;5034432;28;20063;-61
2021/03/10 05:08:58;;;;;;;64.57;37.08;;;;;;;;;;5047149;28;20108;-62
2021/03/10 05:11:24;;;;;;;65.32;36.83;;;;;;;;;;5032500;28;20025;-62
2021/03/10 05:13:50;;;;;;;65.80;36.08;;;;;;;;;;5032466;28;20032;-60
2021/03/10 05:16:16;;;;;;;66.75;35.45;;;;;;;;;;5032176;28;20029;-61
2021/03/10 05:18:43;;;;;;;60.55;31.48;;;;;;;;;;5031324;28;20026;-62
2021/03/10 05:21:10;;;;;;;54.83;33.70;;;;;;;;;;5032430;28;20029;-58
2021/03/10 05:23:41;;;;;;;61.03;35.65;;;;;;;;;;5025029;28;20503;-62
2021/03/10 05:26:07;;;;;;;59.13;34.75;;;;;;;;;;5052286;28;20013;-62
2021/03/10 05:28:33;;;;;;;65.57;35.28;;;;;;;;;;5051624;28;20028;-61
2021/03/10 05:30:59;;;;;;;69.38;35.50;;;;;;;;;;5025907;28;20372;-61
2021/03/10 05:33:25;;;;;;;70.90;36.05;;;;;;;;;;5049447;28;20082;-60
2021/03/10 05:35:51;;;;;;;67.55;37.90;;;;;;;;;;5033715;28;20025;-59
2021/03/10 05:38:17;;;;;;;67.50;35.35;;;;;;;;;;5051326;28;20036;-61
2021/03/10 05:40:45;;;;;;;70.07;36.22;;;;;;;;;;5032971;28;20139;-62
2021/03/10 05:43:11;;;;;;;;;;;;;;;;;;5051909;28;20025;-60
2021/03/10 05:45:37;;;;;;;63.28;34.03;;;;;;;;;;5031535;28;20288;-61
2021/03/10 05:48:05;;;;;;;67.80;36.78;;;;;;;;;;5033317;28;20017;-59
2021/03/10 05:50:30;;;;;;;71.30;36.83;;;;;;;;;;5043484;28;20101;-62
2021/03/10 05:52:56;;;;;;;87.47;39.15;;;;;;;;;;5022150;28;20060;-61
2021/03/10 05:55:23;;;;;;;109.28;40.85;;;;;;;;;;5024350;28;20021;-59
2021/03/10 05:57:49;;;;;;;103.05;40.15;;;;;;;;;;5046630;28;20029;-62
2021/03/10 06:00:16;;;;;;;90.78;38.63;;;;;;;;;;4996977;28;20107;-61
2021/03/10 06:02:42;;;;;;;97.88;38.10;;;;;;;;;;5031323;28;20021;-57
2021/03/10 06:05:25;;;;;;;108.32;39.33;;;;;;;;;;5013527;28;20018;-57
2021/03/10 06:08:04;;;;;;;70.68;35.75;;;;;;;;;;5022420;28;20017;-63
2021/03/10 06:10:43;;;;;;;90.03;39.00;;;;;;;;;;5049773;28;20022;-59
2021/03/10 06:13:29;;;;;;;95.20;38.83;;;;;;;;;;5035680;28;20037;-60
2021/03/10 06:15:56;;;;;;;77.32;38.42;;;;;;;;;;5055180;28;20057;-61
2021/03/10 06:18:29;;;;;;;103.43;43.53;;;;;;;;;;5034290;28;20036;-60
2021/03/10 06:21:09;;;;;;;89.68;39.25;;;;;;;;;;5026891;28;20104;-58
2021/03/10 06:23:35;;;;;;;70.40;37.47;;;;;;;;;;5047908;28;20030;-59
2021/03/10 06:26:02;;;;;;;81.60;35.70;;;;;;;;;;5029660;28;20025;-62
2021/03/10 06:28:39;;;;;;;70.97;36.78;;;;;;;;;;5050484;28;20104;-62
2021/03/10 06:31:15;;;;;;;84.93;39.65;;;;;;;;;;5040519;28;20033;-57
2021/03/10 06:33:41;;;;;;;78.47;39.00;;;;;;;;;;5013651;28;20088;-60
2021/03/10 06:36:07;;;;;;;83.45;42.00;;;;;;;;;;5031398;28;20022;-60
2021/03/10 06:38:33;;;;;;;75.35;41.17;;;;;;;;;;5040901;28;20112;-58
2021/03/10 06:41:00;;;;;;;93.80;38.40;;;;;;;;;;5017091;28;20056;-58
2021/03/10 06:43:35;;;;;;;83.38;40.40;;;;;;;;;;5045151;28;20032;-58
2021/03/10 06:46:10;;;;;;;73.72;37.85;;;;;;;;;;5050674;28;20102;-60
2021/03/10 06:48:36;;;;;;;84.72;39.70;;;;;;;;;;5031780;28;20184;-55
2021/03/10 06:51:02;;;;;;;88.68;40.40;;;;;;;;;;5050537;28;20096;-59
2021/03/10 06:53:31;;;;;;;83.93;42.33;;;;;;;;;;5050572;28;20029;-60
2021/03/10 06:55:58;;;;;;;84.90;40.38;;;;;;;;;;5033063;28;20361;-59
2021/03/10 06:58:24;;;;;;;68.97;37.55;;;;;;;;;;5047035;23;20043;-60
2021/03/10 07:01:02;;;;;;;75.80;37.55;;;;;;;;;;5050901;28;20029;-60
2021/03/10 07:03:29;;;;;;;73.00;38.00;;;;;;;;;;5050788;28;20033;-62
2021/03/10 07:05:56;;;;;;;72.55;37.83;;;;;;;;;;5051021;28;20032;-62
2021/03/10 07:08:22;;;;;;;77.00;38.45;;;;;;;;;;5050146;28;20540;-60
2021/03/10 07:10:48;;;;;;;82.78;38.85;;;;;;;;;;5032864;28;20170;-60
2021/03/10 07:13:14;;;;;;;71.22;36.45;;;;;;;;;;5050662;28;20057;-59
2021/03/10 07:15:40;;;;;;;72.60;38.45;;;;;;;;;;5032836;28;20511;-60
2021/03/10 07:18:06;;;;;;;78.28;40.63;;;;;;;;;;5032490;28;20448;-58
2021/03/10 07:20:32;;;;;;;83.78;42.13;;;;;;;;;;5050400;28;20028;-60
2021/03/10 07:23:18;;;;;;;78.22;38.53;;;;;;;;;;5050592;28;20029;-59
2021/03/10 07:25:44;;;;;;;78.60;39.92;;;;;;;;;;5053647;28;20029;-60
2021/03/10 07:28:20;;;;;;;71.82;39.28;;;;;;;;;;5054126;28;20055;-59
2021/03/10 07:30:47;;;;;;;71.55;38.58;;;;;;;;;;5053874;28;20082;-61
2021/03/10 07:33:21;;;;;;;75.90;39.80;;;;;;;;;;5054392;28;20025;-62
2021/03/10 07:35:47;;;;;;;83.97;41.92;;;;;;;;;;5054361;28;20104;-62
2021/03/10 07:38:13;;;;;;;80.05;40.63;;;;;;;;;;5053888;28;20484;-59
2021/03/10 07:40:50;;;;;;;76.00;42.47;;;;;;;;;;5035758;28;20036;-61
2021/03/10 07:43:16;;;;;;;78.88;42.55;;;;;;;;;;5036313;28;20350;-61
2021/03/10 07:45:44;;;;;;;72.78;39.45;;;;;;;;;;5054268;28;20103;-61
2021/03/10 07:48:10;;;;;;;81.90;41.73;;;;;;;;;;5036017;28;20051;-60
2021/03/10 07:50:43;;;;;;;73.55;38.28;;;;;;;;;;5053369;28;20112;-60
2021/03/10 07:53:09;;;;;;;80.55;40.08;;;;;;;;;;5036020;28;20576;-59
2021/03/10 07:55:43;;;;;;;71.93;37.45;;;;;;;;;;5035840;28;20174;-60
2021/03/10 07:58:09;;;;;;;70.15;38.80;;;;;;;;;;5053725;28;20048;-61
2021/03/10 08:00:35;;;;;;;71.53;38.25;;;;;;;;;;5053774;28;20036;-60
2021/03/10 08:03:01;;;;;;;71.28;38.83;;;;;;;;;;5053929;28;20078;-60
2021/03/10 08:05:28;;;;;;;69.78;39.03;;;;;;;;;;5053672;28;20029;-60
2021/03/10 08:08:14;;;;;;;62.00;36.13;;;;;;;;;;5053196;28;20033;-61
2021/03/10 08:10:40;;;;;;;62.40;37.42;;;;;;;;;;5033960;28;20105;-61
2021/03/10 08:13:14;;;;;;;63.75;35.15;;;;;;;;;;5050861;28;20116;-60
2021/03/10 08:15:40;;;;;;;64.50;35.58;;;;;;;;;;5053284;28;20029;-60
2021/03/10 08:18:06;;;;;;;62.53;36.42;;;;;;;;;;5053138;28;20025;-61
2021/03/10 08:20:39;;;;;;;59.33;34.72;;;;;;;;;;5034574;28;20029;-61
2021/03/10 08:23:05;;;;;;;52.88;31.92;;;;;;;;;;5035062;28;20032;-60
2021/03/10 08:25:33;;;;;;;60.95;33.88;;;;;;;;;;5035468;28;20017;-62
2021/03/10 08:28:12;;;;;;;63.97;33.13;;;;;;;;;;5052538;28;20380;-59
2021/03/10 08:30:38;;;;;;;56.08;33.00;;;;;;;;;;5051145;28;20025;-60
2021/03/10 08:33:08;;;;;;;53.35;32.15;;;;;;;;;;5034165;28;20043;-62
2021/03/10 08:35:34;;;;;;;51.58;31.00;;;;;;;;;;5051304;28;20100;-60
2021/03/10 08:38:02;;;;;;;54.55;32.40;;;;;;;;;;5033367;28;20075;-59
2021/03/10 08:40:30;;;;;;;55.47;32.22;;;;;;;;;;5051527;28;20113;-59
2021/03/10 08:42:57;;;;;;;52.70;31.63;;;;;;;;;;5051762;28;20118;-62
2021/03/10 08:45:25;;;;;;;58.75;31.63;;;;;;;;;;5033105;28;20029;-61
2021/03/10 08:48:08;;;;;;;54.90;31.57;;;;;;;;;;5033078;28;20021;-58
2021/03/10 08:50:40;;;;;;;53.95;30.30;;;;;;;;;;5048393;28;20280;-60
2021/03/10 08:53:07;;;;;;;48.95;29.35;;;;;;;;;;5050988;28;20056;-56
2021/03/10 08:55:34;;;;;;;50.47;30.55;;;;;;;;;;5051803;28;20027;-60
2021/03/10 08:58:00;;;;;;;47.97;27.83;;;;;;;;;;5051713;28;20107;-60
2021/03/10 09:00:27;;;;;;;48.30;31.13;;;;;;;;;;5051954;28;20040;-60
2021/03/10 09:02:54;;;;;;;46.97;28.90;;;;;;;;;;5051974;28;20021;-60
2021/03/10 09:05:29;;;;;;;48.88;29.08;;;;;;;;;;5051683;28;20021;-59
2021/03/10 09:07:57;;;;;;;46.25;26.52;;;;;;;;;;5030597;28;20063;-57
2021/03/10 09:10:23;;;;;;;48.58;30.63;;;;;;;;;;5050433;28;20028;-58
2021/03/10 09:12:50;;;;;;;47.92;28.55;;;;;;;;;;5032665;28;20124;-59
2021/03/10 09:15:26;;;;;;;50.00;28.55;;;;;;;;;;5052232;28;20154;-59
2021/03/10 09:17:52;;;;;;;41.83;25.80;;;;;;;;;;5033766;28;20036;-60
2021/03/10 09:20:27;;;;;;;47.83;28.50;;;;;;;;;;5051281;28;20029;-60
2021/03/10 09:22:54;;;;;;;44.17;25.70;;;;;;;;;;5051733;28;20021;-60
2021/03/10 09:25:31;;;;;;;43.50;26.27;;;;;;;;;;5052243;28;20017;-62
2021/03/10 09:28:06;;;;;;;42.72;25.70;;;;;;;;;;5051719;28;20079;-63
2021/03/10 09:30:35;;;;;;;43.70;25.00;;;4.30;99.90;;;;;;5052041;28;20024;-63
2021/03/10 09:33:01;;;;;;;;;;;7.20;99.90;;;;;;5052047;28;20498;-61
2021/03/10 09:35:31;;;;;;;44.25;25.92;;;7.30;99.90;;;;;;5051790;28;19948;-59
2021/03/10 09:37:59;;;;;;;45.17;25.85;;;7.40;99.90;;;;;;5051550;28;20040;-60
2021/03/10 09:40:42;;;;;;;44.78;26.08;;;7.40;99.90;;;;;;5033742;28;20028;-59
2021/03/10 09:43:14;;;;;;;44.40;26.52;;;7.50;99.90;;;;;;5052335;28;20116;-61
2021/03/10 09:45:40;;;;;;;42.80;25.45;;;7.30;99.90;;;;;;5034296;28;20538;-58
2021/03/10 09:48:11;;;;;;;46.13;26.88;;;7.30;99.90;;;;;;5050575;28;20435;-59
2021/03/10 09:50:45;;;;;;;42.28;25.98;;;7.40;99.90;;;;;;5051366;28;20408;-60
2021/03/10 09:53:21;;;;;;;43.03;26.02;;;7.40;99.90;;;;;;5052124;28;20035;-61
2021/03/10 09:55:47;;;;;;;45.35;25.73;;;7.60;99.90;;;;;;5052301;28;20025;-60
2021/03/10 09:58:13;;;;;;;40.38;24.13;;;7.40;99.90;;;;;;5034872;28;20035;-59
2021/03/10 10:00:40;;;;;;;44.70;26.20;;;7.60;99.90;;;;;;5060876;28;20033;-62
2021/03/10 10:03:06;;;;;;;39.72;23.13;;;;;;;;;;5063225;28;20047;-62
2021/03/10 10:05:34;;;;;;;36.78;23.50;;;;;;;;;;5033696;28;20504;-61
2021/03/10 10:08:01;;;;;;;39.67;23.95;;;;;;;;;;5033578;28;20104;-60
2021/03/10 10:10:29;;;;;;;43.35;23.40;;;;;;;;;;5051169;28;20025;-60
2021/03/10 10:12:55;;;;;;;38.95;24.30;;;;;;;;;;5051402;28;20388;-63
2021/03/10 10:15:22;;;;;;;45.30;23.85;;;;;;;;;;5051605;28;20031;-62
2021/03/10 10:17:49;;;;;;;38.75;23.65;;;;;;;;;;5051331;28;20392;-60
2021/03/10 10:20:16;;;;;;;39.78;23.60;;;;;;;;;;5033609;28;20127;-59
2021/03/10 10:22:42;;;;;;;38.75;24.08;;;;;;;;;;5051684;28;20054;-62
2021/03/10 10:25:09;;;;;;;38.08;21.38;;;;;;;;;;5051827;28;20025;-62
2021/03/10 10:27:35;;;;;;;36.90;22.48;;;;;;;;;;5049889;28;20044;-58
2021/03/10 10:30:01;;;;;;;39.65;22.17;;;;;;;;;;5048934;28;20028;-58
2021/03/10 10:32:28;;;;;;;39.53;23.52;;;;;;;;;;5043335;28;20029;-61
2021/03/10 10:34:55;;;;;;;42.53;22.80;;;;;;;;;;5050167;28;20029;-57
2021/03/10 10:37:21;;;;;;;42.67;25.08;;;;;;;;;;5043946;28;20028;-60
2021/03/10 10:39:47;;;;;;;37.67;22.92;;;;;;;;;;5032434;28;20052;-58
2021/03/10 10:42:13;;;;;;;42.35;24.60;;;;;;;;;;5051080;28;20080;-59
2021/03/10 10:44:39;;;;;;;39.88;24.33;;;;;;;;;;5033148;28;20580;-58
2021/03/10 10:47:06;;;;;;;43.40;25.92;;;;;;;;;;5051281;28;20078;-55
2021/03/10 10:49:33;;;;;;;40.95;22.85;;;;;;;;;;5051020;28;20035;-59
2021/03/10 10:51:59;;;;;;;39.47;24.55;;;;;;;;;;5033417;28;20029;-57
2021/03/10 10:54:25;;;;;;;43.15;24.63;;;;;;;;;;5051324;28;20387;-55
2021/03/10 10:56:51;;;;;;;43.22;27.33;;;;;;;;;;5050859;28;20025;-55
2021/03/10 10:59:17;;;;;;;44.80;26.23;;;;;;;;;;5050594;28;20605;-55
2021/03/10 11:01:43;;;;;;;47.45;26.95;;;;;;;;;;5036962;28;20070;-61
2021/03/10 11:04:10;;;;;;;42.00;24.10;;;;;;;;;;5054808;28;20025;-57
2021/03/10 11:06:36;;;;;;;42.63;26.75;;;;;;;;;;5037253;28;20103;-60
2021/03/10 11:09:02;;;;;;;48.90;26.73;;;;;;;;;;5054607;28;20032;-61
2021/03/10 11:11:28;;;;;;;43.78;25.63;;;;;;;;;;5055972;28;20049;-60
2021/03/10 11:13:54;;;;;;;43.30;26.25;;;;;;;;;;5055290;28;20021;-58
2021/03/10 11:16:20;;;;;;;44.72;26.10;;;;;;;;;;5054056;28;20429;-60
2021/03/10 11:18:46;;;;;;;45.22;26.20;;;;;;;;;;5053403;28;20079;-57
2021/03/10 11:21:19;;;;;;;44.50;26.42;;;;;;;;;;5036548;28;20017;-60
2021/03/10 11:24:02;;;;;;;43.50;25.27;;;;;;;;;;5052155;28;20025;-56
2021/03/10 11:26:28;;;;;;;45.50;26.95;;;;;;;;;;5036532;28;20107;-57
2021/03/10 11:28:53;;;;;;;43.80;26.38;;;;;;;;;;5053941;28;20067;-56
2021/03/10 11:31:19;;;;;;;47.00;26.10;;;;;;;;;;5054183;28;20431;-58
2021/03/10 11:33:45;;;;;;;45.30;26.77;;;;;;;;;;5054720;28;20021;-59
2021/03/10 11:36:17;;;;;;;40.55;24.85;;;;;;;;;;5054744;28;20021;-58
2021/03/10 11:38:43;;;;;;;44.08;26.52;;;;;;;;;;5053156;28;20025;-58
2021/03/10 11:41:10;;;;;;;40.70;24.08;;;;;;;;;;5054275;28;20029;-58
2021/03/10 11:43:36;;;;;;;44.55;25.55;;;;;;;;;;5054243;28;20032;-59
2021/03/10 11:46:02;;;;;;;45.05;25.63;;;;;;;;;;5035045;28;20017;-63
2021/03/10 11:48:28;;;;;;;45.17;25.75;;;;;;;;;;5033796;28;20029;-58
2021/03/10 11:50:54;;;;;;;44.13;25.70;;;7.90;99.90;;;;;;5052584;28;20449;-57
2021/03/10 11:53:19;;;;;;;41.20;24.95;;;9.30;99.90;;;;;;5036695;28;20041;-57
2021/03/10 11:55:45;;;;;;;39.67;25.73;;;9.30;99.90;;;;;;5053849;28;20442;-57
2021/03/10 11:58:11;;;;;;;40.97;24.98;;;9.30;99.90;;;;;;5052884;28;20147;-60
2021/03/10 12:00:39;;;;;;;43.60;26.50;;;9.40;99.90;;;;;;5034440;28;20024;-58
2021/03/10 12:03:04;;;;;;;41.92;24.88;;;9.30;99.90;;;;;;5053297;28;20033;-58
2021/03/10 12:05:32;;;;;;;45.17;25.75;;;9.30;99.90;;;;;;5052233;28;20559;-57
2021/03/10 12:07:58;;;;;;;39.30;25.92;;;9.20;99.90;;;;;;5050833;28;20033;-55
2021/03/10 12:10:24;;;;;;;40.92;24.23;;;9.40;99.90;;;;;;5051215;28;20031;-57
2021/03/10 12:12:49;;;;;;;40.65;25.90;;;9.40;99.90;;;;;;5051817;28;20025;-59
2021/03/10 12:15:18;;;;;;;40.35;24.55;;;9.50;99.90;;;;;;5051774;28;20021;-60
2021/03/10 12:17:44;;;;;;;49.75;25.63;;;9.50;99.90;;;;;;5034358;28;20541;-56
2021/03/10 12:20:11;;;;;;;42.13;25.70;;;9.50;99.90;;;;;;5051992;28;20064;-59
2021/03/10 12:22:37;;;;;;;41.08;24.50;;;9.60;99.90;;;;;;5034049;28;20029;-59
2021/03/10 12:25:05;;;;;;;38.78;23.95;;;9.50;99.90;;;;;;5052508;28;20018;-55
2021/03/10 12:27:31;;;;;;;43.30;24.77;;;9.60;99.90;;;;;;5048658;28;20543;-57
2021/03/10 12:29:57;;;;;;;38.20;24.00;;;9.60;99.90;;;;;;5052232;28;20116;-57
2021/03/10 12:32:24;;;;;;;40.47;22.95;;;9.70;99.90;;;;;;5052157;28;20028;-59
2021/03/10 12:34:51;;;;;;;39.00;24.05;;;9.50;99.90;;;;;;5053502;28;20369;-61
2021/03/10 12:37:17;;;;;;;45.80;27.48;;;9.50;99.90;;;;;;5053972;28;20025;-56
2021/03/10 12:39:43;;;;;;;40.95;24.98;;;9.40;99.90;;;;;;5053994;28;20025;-55
2021/03/10 12:42:09;;;;;;;39.97;24.08;;;9.40;99.90;;;;;;5055028;28;20515;-50
2021/03/10 12:44:41;;;;;;;41.73;26.13;;;9.50;99.90;;;;;;4700745;28;9999840;-57
2021/03/10 12:47:07;;;;;;;43.65;26.70;;;9.60;99.90;;;;;;5048915;28;20263;-60
2021/03/10 12:49:33;;;;;;;40.13;23.70;;;;;;;;;;5030356;28;20033;-59
2021/03/10 12:51:59;;;;;;;42.65;26.10;;;;;;;;;;5048717;28;20355;-59
2021/03/10 12:54:25;;;;;;;41.88;24.23;;;;;;;;;;5047372;28;20715;-56
2021/03/10 12:56:52;;;;;;;36.13;22.90;;;;;;;;;;5048184;28;20059;-54
2021/03/10 12:59:19;;;;;;;40.55;23.30;;;;;;;;;;5046574;28;20131;-54
2021/03/10 13:01:45;;;;;;;35.25;21.52;;;;;;;;;;5047590;28;20071;-61
2021/03/10 13:04:11;;;;;;;37.40;21.73;;;;;;;;;;5047424;22;20073;-64
2021/03/10 13:06:37;;;;;;;38.47;23.45;;;;;;;;;;5007201;28;20052;-65
2021/03/10 13:09:04;;;;;;;38.42;24.95;;;;;;;;;;5006376;28;20651;-64
2021/03/10 13:11:30;;;;;;;38.88;23.40;;;;;;;;;;4988929;28;20025;-65
2021/03/10 13:13:56;;;;;;;40.50;24.52;;;;;;;;;;4989233;28;20693;-64
2021/03/10 13:16:23;;;;;;;40.08;23.45;;;;;;;;;;5007194;28;20054;-63
2021/03/10 13:18:49;;;;;;;42.05;23.67;;;;;;;;;;5006245;28;20061;-65
2021/03/10 13:21:15;;;;;;;39.42;24.65;;;;;;;;;;4988769;28;20517;-65
2021/03/10 13:23:41;;;;;;;39.92;23.60;;;;;;;;;;5006611;28;20108;-63
2021/03/10 13:26:08;;;;;;;36.72;22.70;;;;;;;;;;5006491;28;20030;-64
2021/03/10 13:28:35;;;;;;;38.58;21.80;;;;;;;;;;4997552;28;20030;-65
2021/03/10 13:31:01;;;;;;;36.35;21.63;;;9.70;99.90;;;;;;4986139;28;20038;-66
2021/03/10 13:33:27;;;;;;;33.78;20.48;;;9.80;99.90;;;;;;5010249;28;20045;-65
2021/03/10 13:35:52;;;;;;;32.08;19.35;;;9.70;99.90;;;;;;4992084;28;20051;-66
2021/03/10 13:38:18;;;;;;;31.65;21.13;;;9.70;99.90;;;;;;4658502;28;10000206;-66
2021/03/10 13:40:44;;;;;;;30.67;20.92;;;9.60;99.90;;;;;;5005135;28;20502;-66
2021/03/10 13:43:10;;;;;;;34.20;20.30;;;9.70;99.90;;;;;;4989197;28;20026;-64
2021/03/10 13:45:36;;;;;;;33.17;19.55;;;9.70;99.90;;;;;;4989830;28;20037;-66
2021/03/10 13:48:02;;;;;;;31.02;20.42;;;9.70;99.90;;;;;;5006582;28;20084;-65
2021/03/10 13:50:29;;;;;;;30.05;18.60;;;9.70;99.90;;;;;;4988059;28;20472;-63
2021/03/10 13:52:56;;;;;;;28.83;18.98;;;9.70;99.90;;;;;;5006610;28;20139;-65
2021/03/10 13:55:21;;;;;;;31.35;19.63;;;9.70;99.90;;;;;;5007362;28;20548;-65
2021/03/10 13:57:47;;;;;;;30.05;18.85;;;9.70;99.90;;;;;;5007348;28;20054;-66
2021/03/10 14:00:13;;;;;;;30.15;17.55;;;9.70;99.90;;;;;;5007606;28;20064;-64
2021/03/10 14:02:39;;;;;;;28.63;18.02;;;9.80;99.90;;;;;;4987360;28;20121;-63
2021/03/10 14:05:06;;;;;;;29.30;17.95;;;9.80;99.90;;;;;;5000192;28;20037;-66